sensor_id;sensor_type;location;lat;lon;timestamp;pressure;altitude;pressure_sealevel;temperature;humidity
34235;BME280;20500;49.856;20.290;2024-01-30T00:00:51;100814.92;;;-2.24;80.72
34235;BME280;20500;49.856;20.290;2024-01-30T00:03:58;100816.96;;;-2.31;80.68
34235;BME280;20500;49.856;20.290;2024-01-30T00:07:05;100814.38;;;-2.42;80.82
34235;BME280;20500;49.856;20.290;2024-01-30T00:10:11;100808.75;;;-2.44;81.02
34235;BME280;20500;49.856;20.290;2024-01-30T00:13:18;100808.36;;;-2.48;80.76
34235;BME280;20500;49.856;20.290;2024-01-30T00:16:27;100808.11;;;-2.55;80.99
34235;BME280;20500;49.856;20.290;2024-01-30T00:19:34;100805.08;;;-2.60;80.85
34235;BME280;20500;49.856;20.290;2024-01-30T00:22:41;100803.52;;;-2.71;80.82
34235;BME280;20500;49.856;20.290;2024-01-30T00:25:47;100803.69;;;-2.75;80.90
34235;BME280;20500;49.856;20.290;2024-01-30T00:28:52;100801.83;;;-2.78;80.98
34235;BME280;20500;49.856;20.290;2024-01-30T00:31:58;100804.89;;;-2.79;81.13
34235;BME280;20500;49.856;20.290;2024-01-30T00:35:05;100804.16;;;-2.74;81.25
34235;BME280;20500;49.856;20.290;2024-01-30T00:38:12;100804.16;;;-2.69;81.28
34235;BME280;20500;49.856;20.290;2024-01-30T00:41:18;100805.45;;;-2.65;81.33
34235;BME280;20500;49.856;20.290;2024-01-30T00:44:24;100798.41;;;-2.62;81.34
34235;BME280;20500;49.856;20.290;2024-01-30T00:47:31;100788.00;;;-2.60;81.32
34235;BME280;20500;49.856;20.290;2024-01-30T00:50:38;100791.59;;;-2.56;81.27
34235;BME280;20500;49.856;20.290;2024-01-30T00:53:44;100789.44;;;-2.56;81.00
34235;BME280;20500;49.856;20.290;2024-01-30T00:56:51;100785.95;;;-2.62;81.25
34235;BME280;20500;49.856;20.290;2024-01-30T00:59:57;100782.80;;;-2.68;81.28
34235;BME280;20500;49.856;20.290;2024-01-30T01:03:04;100784.85;;;-2.70;81.24
34235;BME280;20500;49.856;20.290;2024-01-30T01:06:10;100784.98;;;-2.70;81.42
34235;BME280;20500;49.856;20.290;2024-01-30T01:09:17;100780.84;;;-2.68;81.60
34235;BME280;20500;49.856;20.290;2024-01-30T01:12:24;100776.34;;;-2.66;81.57
34235;BME280;20500;49.856;20.290;2024-01-30T01:15:30;100772.39;;;-2.65;81.40
34235;BME280;20500;49.856;20.290;2024-01-30T01:18:36;100773.27;;;-2.65;81.32
34235;BME280;20500;49.856;20.290;2024-01-30T01:21:43;100767.52;;;-2.68;81.24
34235;BME280;20500;49.856;20.290;2024-01-30T01:24:47;100767.48;;;-2.72;81.28
34235;BME280;20500;49.856;20.290;2024-01-30T01:27:54;100766.84;;;-2.74;81.42
34235;BME280;20500;49.856;20.290;2024-01-30T01:31:01;100765.61;;;-2.79;81.33
34235;BME280;20500;49.856;20.290;2024-01-30T01:34:10;100762.25;;;-2.84;81.23
34235;BME280;20500;49.856;20.290;2024-01-30T01:37:18;100767.30;;;-2.86;81.37
34235;BME280;20500;49.856;20.290;2024-01-30T01:40:27;100767.19;;;-2.88;81.47
34235;BME280;20500;49.856;20.290;2024-01-30T01:43:34;100766.95;;;-2.91;81.49
34235;BME280;20500;49.856;20.290;2024-01-30T01:46:40;100770.48;;;-2.91;81.56
34235;BME280;20500;49.856;20.290;2024-01-30T01:49:47;100778.20;;;-2.88;81.72
34235;BME280;20500;49.856;20.290;2024-01-30T01:52:54;100778.42;;;-2.84;81.82
34235;BME280;20500;49.856;20.290;2024-01-30T01:56:02;100779.87;;;-2.85;81.50
34235;BME280;20500;49.856;20.290;2024-01-30T01:59:09;100782.08;;;-2.92;81.31
34235;BME280;20500;49.856;20.290;2024-01-30T02:02:16;100778.92;;;-2.93;81.31
34235;BME280;20500;49.856;20.290;2024-01-30T02:05:24;100781.18;;;-2.97;81.33
34235;BME280;20500;49.856;20.290;2024-01-30T02:08:31;100781.40;;;-2.98;81.25
34235;BME280;20500;49.856;20.290;2024-01-30T02:11:38;100776.54;;;-3.01;81.28
34235;BME280;20500;49.856;20.290;2024-01-30T02:14:50;100772.95;;;-3.01;81.57
34235;BME280;20500;49.856;20.290;2024-01-30T02:17:58;100764.92;;;-2.99;81.55
34235;BME280;20500;49.856;20.290;2024-01-30T02:21:07;100762.70;;;-3.07;81.34
34235;BME280;20500;49.856;20.290;2024-01-30T02:24:13;100760.91;;;-3.11;81.35
34235;BME280;20500;49.856;20.290;2024-01-30T02:27:20;100760.42;;;-3.13;81.44
34235;BME280;20500;49.856;20.290;2024-01-30T02:30:26;100758.74;;;-3.15;81.54
34235;BME280;20500;49.856;20.290;2024-01-30T02:33:32;100757.72;;;-3.11;81.58
34235;BME280;20500;49.856;20.290;2024-01-30T02:36:41;100754.69;;;-3.11;81.57
34235;BME280;20500;49.856;20.290;2024-01-30T02:39:48;100750.55;;;-3.15;81.43
34235;BME280;20500;49.856;20.290;2024-01-30T02:42:54;100746.94;;;-3.18;81.52
34235;BME280;20500;49.856;20.290;2024-01-30T02:46:01;100745.23;;;-3.15;81.77
34235;BME280;20500;49.856;20.290;2024-01-30T02:49:07;100743.73;;;-3.17;81.56
34235;BME280;20500;49.856;20.290;2024-01-30T02:52:14;100742.26;;;-3.26;81.47
34235;BME280;20500;49.856;20.290;2024-01-30T02:55:21;100739.17;;;-3.34;81.39
34235;BME280;20500;49.856;20.290;2024-01-30T02:58:27;100741.33;;;-3.46;81.30
34235;BME280;20500;49.856;20.290;2024-01-30T03:01:34;100742.45;;;-3.47;81.65
34235;BME280;20500;49.856;20.290;2024-01-30T03:04:49;100738.13;;;-3.40;81.72
34235;BME280;20500;49.856;20.290;2024-01-30T03:07:55;100734.98;;;-3.36;81.62
34235;BME280;20500;49.856;20.290;2024-01-30T03:11:02;100736.80;;;-3.37;81.55
34235;BME280;20500;49.856;20.290;2024-01-30T03:14:08;100739.08;;;-3.37;81.69
34235;BME280;20500;49.856;20.290;2024-01-30T03:17:16;100736.71;;;-3.35;81.73
34235;BME280;20500;49.856;20.290;2024-01-30T03:20:22;100738.13;;;-3.34;81.85
34235;BME280;20500;49.856;20.290;2024-01-30T03:23:29;100738.40;;;-3.32;81.96
34235;BME280;20500;49.856;20.290;2024-01-30T03:26:37;100733.67;;;-3.29;81.98
34235;BME280;20500;49.856;20.290;2024-01-30T03:29:43;100733.10;;;-3.29;81.69
34235;BME280;20500;49.856;20.290;2024-01-30T03:32:50;100732.34;;;-3.27;81.94
34235;BME280;20500;49.856;20.290;2024-01-30T03:35:56;100732.65;;;-3.26;81.91
34235;BME280;20500;49.856;20.290;2024-01-30T03:39:01;100727.64;;;-3.24;81.83
34235;BME280;20500;49.856;20.290;2024-01-30T03:42:08;100728.30;;;-3.23;81.69
34235;BME280;20500;49.856;20.290;2024-01-30T03:45:14;100726.94;;;-3.25;81.72
34235;BME280;20500;49.856;20.290;2024-01-30T03:48:21;100724.05;;;-3.28;81.66
34235;BME280;20500;49.856;20.290;2024-01-30T03:51:28;100723.62;;;-3.31;81.86
34235;BME280;20500;49.856;20.290;2024-01-30T03:54:34;100728.66;;;-3.33;81.88
34235;BME280;20500;49.856;20.290;2024-01-30T03:57:39;100728.55;;;-3.34;81.76
34235;BME280;20500;49.856;20.290;2024-01-30T04:00:45;100726.77;;;-3.35;81.93
34235;BME280;20500;49.856;20.290;2024-01-30T04:03:52;100724.27;;;-3.34;82.08
34235;BME280;20500;49.856;20.290;2024-01-30T04:06:59;100720.58;;;-3.35;81.74
34235;BME280;20500;49.856;20.290;2024-01-30T04:10:07;100724.55;;;-3.37;81.64
34235;BME280;20500;49.856;20.290;2024-01-30T04:13:14;100723.20;;;-3.39;81.47
34235;BME280;20500;49.856;20.290;2024-01-30T04:16:24;100719.98;;;-3.44;81.50
34235;BME280;20500;49.856;20.290;2024-01-30T04:19:30;100722.64;;;-3.44;81.60
34235;BME280;20500;49.856;20.290;2024-01-30T04:22:37;100723.29;;;-3.47;81.52
34235;BME280;20500;49.856;20.290;2024-01-30T04:25:43;100728.63;;;-3.48;81.81
34235;BME280;20500;49.856;20.290;2024-01-30T04:28:50;100733.65;;;-3.49;81.61
34235;BME280;20500;49.856;20.290;2024-01-30T04:31:56;100731.11;;;-3.58;81.41
34235;BME280;20500;49.856;20.290;2024-01-30T04:35:03;100731.75;;;-3.66;81.60
34235;BME280;20500;49.856;20.290;2024-01-30T04:38:15;100733.97;;;-3.64;81.76
34235;BME280;20500;49.856;20.290;2024-01-30T04:41:21;100736.08;;;-3.63;81.74
34235;BME280;20500;49.856;20.290;2024-01-30T04:44:28;100736.20;;;-3.62;82.05
34235;BME280;20500;49.856;20.290;2024-01-30T04:47:34;100735.19;;;-3.58;81.97
34235;BME280;20500;49.856;20.290;2024-01-30T04:50:41;100729.31;;;-3.63;81.74
34235;BME280;20500;49.856;20.290;2024-01-30T04:53:47;100734.40;;;-3.66;81.87
34235;BME280;20500;49.856;20.290;2024-01-30T04:56:51;100734.64;;;-3.68;81.94
34235;BME280;20500;49.856;20.290;2024-01-30T04:59:58;100740.05;;;-3.66;81.98
34235;BME280;20500;49.856;20.290;2024-01-30T05:03:05;100735.54;;;-3.63;81.87
34235;BME280;20500;49.856;20.290;2024-01-30T05:06:11;100735.54;;;-3.63;81.74
34235;BME280;20500;49.856;20.290;2024-01-30T05:09:18;100731.33;;;-3.64;81.85
34235;BME280;20500;49.856;20.290;2024-01-30T05:12:25;100734.51;;;-3.64;81.80
34235;BME280;20500;49.856;20.290;2024-01-30T05:15:31;100740.04;;;-3.70;81.75
34235;BME280;20500;49.856;20.290;2024-01-30T05:18:37;100738.86;;;-3.83;81.57
34235;BME280;20500;49.856;20.290;2024-01-30T05:21:44;100740.41;;;-3.87;81.81
34235;BME280;20500;49.856;20.290;2024-01-30T05:24:50;100743.30;;;-3.82;82.00
34235;BME280;20500;49.856;20.290;2024-01-30T05:27:57;100741.48;;;-3.87;81.77
34235;BME280;20500;49.856;20.290;2024-01-30T05:31:04;100739.63;;;-3.95;81.65
34235;BME280;20500;49.856;20.290;2024-01-30T05:34:10;100744.88;;;-3.99;81.87
34235;BME280;20500;49.856;20.290;2024-01-30T05:37:17;100741.71;;;-3.99;81.99
34235;BME280;20500;49.856;20.290;2024-01-30T05:40:23;100738.14;;;-3.99;81.99
34235;BME280;20500;49.856;20.290;2024-01-30T05:43:30;100731.36;;;-3.98;82.16
34235;BME280;20500;49.856;20.290;2024-01-30T05:46:37;100731.38;;;-3.93;82.24
34235;BME280;20500;49.856;20.290;2024-01-30T05:49:43;100730.27;;;-3.91;82.03
34235;BME280;20500;49.856;20.290;2024-01-30T05:52:49;100731.58;;;-3.93;82.00
34235;BME280;20500;49.856;20.290;2024-01-30T05:55:54;100729.59;;;-3.92;81.98
34235;BME280;20500;49.856;20.290;2024-01-30T05:59:00;100733.29;;;-3.91;82.13
34235;BME280;20500;49.856;20.290;2024-01-30T06:02:07;100736.87;;;-3.93;82.01
34235;BME280;20500;49.856;20.290;2024-01-30T06:05:13;100738.84;;;-3.93;82.32
34235;BME280;20500;49.856;20.290;2024-01-30T06:08:20;100736.71;;;-3.93;82.18
34235;BME280;20500;49.856;20.290;2024-01-30T06:11:26;100740.00;;;-3.91;82.31
34235;BME280;20500;49.856;20.290;2024-01-30T06:14:33;100740.20;;;-3.91;82.26
34235;BME280;20500;49.856;20.290;2024-01-30T06:17:39;100740.23;;;-3.92;82.11
34235;BME280;20500;49.856;20.290;2024-01-30T06:20:46;100740.67;;;-3.90;82.16
34235;BME280;20500;49.856;20.290;2024-01-30T06:23:53;100741.38;;;-3.89;82.22
34235;BME280;20500;49.856;20.290;2024-01-30T06:26:59;100743.70;;;-3.90;82.14
34235;BME280;20500;49.856;20.290;2024-01-30T06:30:07;100740.20;;;-3.91;82.26
34235;BME280;20500;49.856;20.290;2024-01-30T06:33:14;100740.58;;;-3.92;82.29
34235;BME280;20500;49.856;20.290;2024-01-30T06:36:21;100737.36;;;-3.91;82.06
34235;BME280;20500;49.856;20.290;2024-01-30T06:39:28;100735.67;;;-3.94;82.22
34235;BME280;20500;49.856;20.290;2024-01-30T06:42:34;100738.46;;;-3.98;82.17
34235;BME280;20500;49.856;20.290;2024-01-30T06:45:40;100732.49;;;-4.00;82.21
34235;BME280;20500;49.856;20.290;2024-01-30T06:48:47;100733.41;;;-4.01;82.10
34235;BME280;20500;49.856;20.290;2024-01-30T06:51:54;100735.93;;;-4.02;82.33
34235;BME280;20500;49.856;20.290;2024-01-30T06:55:01;100729.73;;;-4.02;82.30
34235;BME280;20500;49.856;20.290;2024-01-30T06:58:08;100729.73;;;-4.02;82.33
34235;BME280;20500;49.856;20.290;2024-01-30T07:01:14;100728.77;;;-3.99;82.29
34235;BME280;20500;49.856;20.290;2024-01-30T07:04:21;100726.64;;;-4.00;82.33
34235;BME280;20500;49.856;20.290;2024-01-30T07:07:28;100727.30;;;-3.98;82.47
34235;BME280;20500;49.856;20.290;2024-01-30T07:10:34;100728.08;;;-3.95;82.37
34235;BME280;20500;49.856;20.290;2024-01-30T07:13:41;100728.45;;;-3.90;82.57
34235;BME280;20500;49.856;20.290;2024-01-30T07:16:45;100729.51;;;-3.84;82.58
34235;BME280;20500;49.856;20.290;2024-01-30T07:19:52;100729.60;;;-3.81;82.55
34235;BME280;20500;49.856;20.290;2024-01-30T07:22:59;100727.73;;;-3.79;82.63
34235;BME280;20500;49.856;20.290;2024-01-30T07:26:05;100730.33;;;-3.77;82.84
34235;BME280;20500;49.856;20.290;2024-01-30T07:29:13;100729.45;;;-3.72;82.73
34235;BME280;20500;49.856;20.290;2024-01-30T07:32:19;100735.20;;;-3.69;82.77
34235;BME280;20500;49.856;20.290;2024-01-30T07:35:26;100734.36;;;-3.65;82.81
34235;BME280;20500;49.856;20.290;2024-01-30T07:38:34;100738.46;;;-3.60;83.02
34235;BME280;20500;49.856;20.290;2024-01-30T07:41:41;100738.02;;;-3.58;83.11
34235;BME280;20500;49.856;20.290;2024-01-30T07:44:47;100735.90;;;-3.53;83.28
34235;BME280;20500;49.856;20.290;2024-01-30T07:47:53;100728.70;;;-3.44;83.27
34235;BME280;20500;49.856;20.290;2024-01-30T07:51:00;100725.03;;;-3.36;83.43
34235;BME280;20500;49.856;20.290;2024-01-30T07:54:21;100728.89;;;-3.29;83.33
34235;BME280;20500;49.856;20.290;2024-01-30T07:57:28;100728.89;;;-3.24;83.26
34235;BME280;20500;49.856;20.290;2024-01-30T08:00:35;100729.21;;;-3.19;83.43
34235;BME280;20500;49.856;20.290;2024-01-30T08:03:41;100729.79;;;-3.10;83.68
34235;BME280;20500;49.856;20.290;2024-01-30T08:06:48;100729.55;;;-2.98;83.93
34235;BME280;20500;49.856;20.290;2024-01-30T08:09:52;100724.66;;;-2.86;84.09
34235;BME280;20500;49.856;20.290;2024-01-30T08:12:59;100727.45;;;-2.75;84.27
34235;BME280;20500;49.856;20.290;2024-01-30T08:16:06;100729.23;;;-2.66;84.23
34235;BME280;20500;49.856;20.290;2024-01-30T08:19:17;100726.91;;;-2.56;84.30
34235;BME280;20500;49.856;20.290;2024-01-30T08:22:23;100731.36;;;-2.42;84.46
34235;BME280;20500;49.856;20.290;2024-01-30T08:25:29;100731.39;;;-2.30;84.70
34235;BME280;20500;49.856;20.290;2024-01-30T08:28:34;100734.35;;;-2.19;84.76
34235;BME280;20500;49.856;20.290;2024-01-30T08:31:40;100733.34;;;-2.07;84.96
34235;BME280;20500;49.856;20.290;2024-01-30T08:34:46;100731.15;;;-1.96;84.90
34235;BME280;20500;49.856;20.290;2024-01-30T08:37:53;100731.31;;;-1.88;84.90
34235;BME280;20500;49.856;20.290;2024-01-30T08:40:59;100731.14;;;-1.79;85.08
34235;BME280;20500;49.856;20.290;2024-01-30T08:44:06;100729.38;;;-1.71;85.18
34235;BME280;20500;49.856;20.290;2024-01-30T08:47:10;100731.14;;;-1.62;85.27
34235;BME280;20500;49.856;20.290;2024-01-30T08:50:17;100732.27;;;-1.51;85.37
34235;BME280;20500;49.856;20.290;2024-01-30T08:53:23;100729.04;;;-1.37;85.77
34235;BME280;20500;49.856;20.290;2024-01-30T08:56:29;100726.02;;;-1.21;85.88
34235;BME280;20500;49.856;20.290;2024-01-30T08:59:36;100722.92;;;-1.03;85.90
34235;BME280;20500;49.856;20.290;2024-01-30T09:02:40;100720.45;;;-0.88;85.77
34235;BME280;20500;49.856;20.290;2024-01-30T09:05:47;100716.97;;;-0.78;85.79
34235;BME280;20500;49.856;20.290;2024-01-30T09:08:53;100717.39;;;-0.68;85.72
34235;BME280;20500;49.856;20.290;2024-01-30T09:11:59;100716.61;;;-0.55;85.90
34235;BME280;20500;49.856;20.290;2024-01-30T09:15:11;100710.88;;;-0.43;85.93
34235;BME280;20500;49.856;20.290;2024-01-30T09:18:17;100710.10;;;-0.30;86.04
34235;BME280;20500;49.856;20.290;2024-01-30T09:21:24;100701.63;;;-0.17;86.20
34235;BME280;20500;49.856;20.290;2024-01-30T09:24:30;100699.11;;;-0.02;86.07
34235;BME280;20500;49.856;20.290;2024-01-30T09:27:36;100696.11;;;0.19;85.83
34235;BME280;20500;49.856;20.290;2024-01-30T09:30:42;100691.93;;;0.45;85.62
34235;BME280;20500;49.856;20.290;2024-01-30T09:33:48;100687.46;;;0.69;85.34
34235;BME280;20500;49.856;20.290;2024-01-30T09:36:56;100689.26;;;0.90;85.18
34235;BME280;20500;49.856;20.290;2024-01-30T09:40:02;100684.20;;;1.11;85.23
34235;BME280;20500;49.856;20.290;2024-01-30T09:43:12;100684.56;;;1.37;84.90
34235;BME280;20500;49.856;20.290;2024-01-30T09:46:22;100687.66;;;1.56;84.55
34235;BME280;20500;49.856;20.290;2024-01-30T09:49:33;100683.34;;;1.75;84.37
34235;BME280;20500;49.856;20.290;2024-01-30T09:52:40;100675.83;;;1.94;84.40
34235;BME280;20500;49.856;20.290;2024-01-30T09:55:47;100676.04;;;2.12;84.40
34235;BME280;20500;49.856;20.290;2024-01-30T09:58:53;100669.67;;;2.23;84.07
34235;BME280;20500;49.856;20.290;2024-01-30T10:01:59;100660.70;;;2.35;84.18
34235;BME280;20500;49.856;20.290;2024-01-30T10:05:07;100660.08;;;2.49;84.30
34235;BME280;20500;49.856;20.290;2024-01-30T10:08:13;100655.91;;;2.58;84.24
34235;BME280;20500;49.856;20.290;2024-01-30T10:11:24;100654.98;;;2.68;83.95
34235;BME280;20500;49.856;20.290;2024-01-30T10:14:28;100650.30;;;2.83;83.73
34235;BME280;20500;49.856;20.290;2024-01-30T10:17:37;100650.48;;;3.00;83.40
34235;BME280;20500;49.856;20.290;2024-01-30T10:20:43;100643.83;;;3.15;83.38
34235;BME280;20500;49.856;20.290;2024-01-30T10:23:49;100639.33;;;3.30;83.31
34235;BME280;20500;49.856;20.290;2024-01-30T10:26:54;100635.89;;;3.44;83.25
34235;BME280;20500;49.856;20.290;2024-01-30T10:30:00;100631.41;;;3.55;82.87
34235;BME280;20500;49.856;20.290;2024-01-30T10:33:09;100625.54;;;3.65;82.86
34235;BME280;20500;49.856;20.290;2024-01-30T10:36:16;100627.65;;;3.74;82.56
34235;BME280;20500;49.856;20.290;2024-01-30T10:39:25;100624.09;;;3.87;82.56
34235;BME280;20500;49.856;20.290;2024-01-30T10:42:37;100616.23;;;3.98;82.43
34235;BME280;20500;49.856;20.290;2024-01-30T10:45:50;100612.39;;;4.07;82.47
34235;BME280;20500;49.856;20.290;2024-01-30T10:48:59;100610.77;;;4.18;82.05
34235;BME280;20500;49.856;20.290;2024-01-30T10:52:07;100605.88;;;4.26;81.93
34235;BME280;20500;49.856;20.290;2024-01-30T10:55:15;100603.24;;;4.35;81.66
34235;BME280;20500;49.856;20.290;2024-01-30T10:58:23;100604.60;;;4.45;81.42
34235;BME280;20500;49.856;20.290;2024-01-30T11:01:30;100602.20;;;4.53;81.27
34235;BME280;20500;49.856;20.290;2024-01-30T11:04:42;100598.53;;;4.62;81.09
34235;BME280;20500;49.856;20.290;2024-01-30T11:07:49;100596.29;;;4.76;80.76
34235;BME280;20500;49.856;20.290;2024-01-30T11:10:58;100588.30;;;4.92;81.12
34235;BME280;20500;49.856;20.290;2024-01-30T11:14:04;100586.75;;;5.02;80.55
34235;BME280;20500;49.856;20.290;2024-01-30T11:17:11;100586.15;;;5.07;80.63
34235;BME280;20500;49.856;20.290;2024-01-30T11:20:19;100580.67;;;5.19;80.67
34235;BME280;20500;49.856;20.290;2024-01-30T11:23:27;100578.73;;;5.33;80.56
34235;BME280;20500;49.856;20.290;2024-01-30T11:26:34;100574.58;;;5.53;80.11
34235;BME280;20500;49.856;20.290;2024-01-30T11:29:41;100568.17;;;5.73;80.04
34235;BME280;20500;49.856;20.290;2024-01-30T11:32:47;100566.33;;;5.94;79.62
34235;BME280;20500;49.856;20.290;2024-01-30T11:36:04;100565.16;;;6.14;79.55
34235;BME280;20500;49.856;20.290;2024-01-30T11:39:13;100560.21;;;6.36;78.94
34235;BME280;20500;49.856;20.290;2024-01-30T11:42:22;100562.90;;;6.48;78.52
34235;BME280;20500;49.856;20.290;2024-01-30T11:45:30;100563.55;;;6.58;78.59
34235;BME280;20500;49.856;20.290;2024-01-30T11:48:37;100562.89;;;6.78;78.68
34235;BME280;20500;49.856;20.290;2024-01-30T11:51:43;100566.38;;;6.96;78.17
34235;BME280;20500;49.856;20.290;2024-01-30T11:54:53;100560.50;;;6.99;77.75
34235;BME280;20500;49.856;20.290;2024-01-30T11:58:00;100558.55;;;7.01;77.80
34235;BME280;20500;49.856;20.290;2024-01-30T12:01:07;100555.02;;;7.04;77.40
34235;BME280;20500;49.856;20.290;2024-01-30T12:04:11;100548.45;;;7.09;77.26
34235;BME280;20500;49.856;20.290;2024-01-30T12:07:18;100545.89;;;7.14;77.02
34235;BME280;20500;49.856;20.290;2024-01-30T12:10:22;100542.27;;;7.19;76.80
34235;BME280;20500;49.856;20.290;2024-01-30T12:13:29;100537.09;;;7.25;76.50
34235;BME280;20500;49.856;20.290;2024-01-30T12:16:37;100531.54;;;7.31;76.48
34235;BME280;20500;49.856;20.290;2024-01-30T12:19:43;100529.31;;;7.38;76.47
34235;BME280;20500;49.856;20.290;2024-01-30T12:22:50;100529.71;;;7.46;76.13
34235;BME280;20500;49.856;20.290;2024-01-30T12:25:58;100531.99;;;7.54;75.86
34235;BME280;20500;49.856;20.290;2024-01-30T12:29:05;100531.17;;;7.59;75.75
34235;BME280;20500;49.856;20.290;2024-01-30T12:32:16;100524.84;;;7.64;75.77
34235;BME280;20500;49.856;20.290;2024-01-30T12:35:23;100524.41;;;7.69;75.52
34235;BME280;20500;49.856;20.290;2024-01-30T12:38:30;100524.00;;;7.76;74.97
34235;BME280;20500;49.856;20.290;2024-01-30T12:41:37;100525.25;;;7.83;74.66
34235;BME280;20500;49.856;20.290;2024-01-30T12:44:44;100524.46;;;7.88;74.53
34235;BME280;20500;49.856;20.290;2024-01-30T12:47:50;100527.15;;;7.92;74.53
34235;BME280;20500;49.856;20.290;2024-01-30T12:50:57;100525.64;;;7.95;74.16
34235;BME280;20500;49.856;20.290;2024-01-30T12:54:07;100524.35;;;8.00;73.90
34235;BME280;20500;49.856;20.290;2024-01-30T12:57:13;100523.34;;;8.03;73.74
34235;BME280;20500;49.856;20.290;2024-01-30T13:00:20;100520.55;;;8.06;73.81
34235;BME280;20500;49.856;20.290;2024-01-30T13:03:26;100522.14;;;8.11;73.36
34235;BME280;20500;49.856;20.290;2024-01-30T13:06:33;100519.52;;;8.18;73.21
34235;BME280;20500;49.856;20.290;2024-01-30T13:09:39;100513.60;;;8.24;72.88
34235;BME280;20500;49.856;20.290;2024-01-30T13:12:45;100513.35;;;8.29;72.78
34235;BME280;20500;49.856;20.290;2024-01-30T13:15:52;100514.25;;;8.31;72.65
34235;BME280;20500;49.856;20.290;2024-01-30T13:18:58;100514.17;;;8.32;72.58
34235;BME280;20500;49.856;20.290;2024-01-30T13:22:06;100511.90;;;8.34;72.36
34235;BME280;20500;49.856;20.290;2024-01-30T13:25:12;100506.14;;;8.37;71.82
34235;BME280;20500;49.856;20.290;2024-01-30T13:28:19;100502.67;;;8.42;71.49
34235;BME280;20500;49.856;20.290;2024-01-30T13:31:23;100505.85;;;8.49;71.52
34235;BME280;20500;49.856;20.290;2024-01-30T13:34:29;100506.09;;;8.54;70.90
34235;BME280;20500;49.856;20.290;2024-01-30T13:37:36;100501.39;;;8.57;70.82
34235;BME280;20500;49.856;20.290;2024-01-30T13:40:42;100503.30;;;8.58;70.35
34235;BME280;20500;49.856;20.290;2024-01-30T13:43:48;100498.84;;;8.57;69.98
34235;BME280;20500;49.856;20.290;2024-01-30T13:46:54;100500.14;;;8.54;69.75
34235;BME280;20500;49.856;20.290;2024-01-30T13:49:59;100501.30;;;8.53;69.75
34235;BME280;20500;49.856;20.290;2024-01-30T13:53:05;100499.35;;;8.51;69.48
34235;BME280;20500;49.856;20.290;2024-01-30T13:56:12;100496.98;;;8.47;69.19
34235;BME280;20500;49.856;20.290;2024-01-30T13:59:18;100498.11;;;8.43;68.95
34235;BME280;20500;49.856;20.290;2024-01-30T14:02:28;100503.26;;;8.37;68.80
34235;BME280;20500;49.856;20.290;2024-01-30T14:05:33;100505.84;;;8.28;68.84
34235;BME280;20500;49.856;20.290;2024-01-30T14:08:40;100497.44;;;8.19;68.84
34235;BME280;20500;49.856;20.290;2024-01-30T14:11:51;100498.95;;;8.12;68.57
34235;BME280;20500;49.856;20.290;2024-01-30T14:14:57;100494.95;;;8.05;68.49
34235;BME280;20500;49.856;20.290;2024-01-30T14:18:06;100495.42;;;7.96;68.41
34235;BME280;20500;49.856;20.290;2024-01-30T14:21:13;100493.20;;;7.88;68.25
34235;BME280;20500;49.856;20.290;2024-01-30T14:24:18;100493.67;;;7.80;68.29
34235;BME280;20500;49.856;20.290;2024-01-30T14:27:24;100494.80;;;7.73;68.11
34235;BME280;20500;49.856;20.290;2024-01-30T14:30:31;100493.35;;;7.67;68.34
34235;BME280;20500;49.856;20.290;2024-01-30T14:33:37;100492.64;;;7.58;68.24
34235;BME280;20500;49.856;20.290;2024-01-30T14:36:45;100491.04;;;7.49;68.28
34235;BME280;20500;49.856;20.290;2024-01-30T14:39:51;100492.29;;;7.40;68.17
34235;BME280;20500;49.856;20.290;2024-01-30T14:42:57;100491.10;;;7.30;68.07
34235;BME280;20500;49.856;20.290;2024-01-30T14:46:02;100489.22;;;7.23;67.93
34235;BME280;20500;49.856;20.290;2024-01-30T14:49:11;100489.54;;;7.12;67.97
34235;BME280;20500;49.856;20.290;2024-01-30T14:52:15;100489.77;;;7.03;67.97
34235;BME280;20500;49.856;20.290;2024-01-30T14:55:22;100492.66;;;6.92;67.61
34235;BME280;20500;49.856;20.290;2024-01-30T14:58:29;100493.08;;;6.78;67.55
34235;BME280;20500;49.856;20.290;2024-01-30T15:01:33;100495.83;;;6.63;67.43
34235;BME280;20500;49.856;20.290;2024-01-30T15:04:40;100495.39;;;6.51;67.50
34235;BME280;20500;49.856;20.290;2024-01-30T15:07:46;100494.18;;;6.41;67.36
34235;BME280;20500;49.856;20.290;2024-01-30T15:10:53;100495.77;;;6.30;67.19
34235;BME280;20500;49.856;20.290;2024-01-30T15:13:59;100492.71;;;6.16;67.25
34235;BME280;20500;49.856;20.290;2024-01-30T15:17:05;100492.21;;;6.04;67.07
34235;BME280;20500;49.856;20.290;2024-01-30T15:20:11;100491.76;;;5.93;67.15
34235;BME280;20500;49.856;20.290;2024-01-30T15:23:18;100491.42;;;5.83;67.18
34235;BME280;20500;49.856;20.290;2024-01-30T15:26:24;100495.31;;;5.72;67.02
34235;BME280;20500;49.856;20.290;2024-01-30T15:29:30;100495.14;;;5.60;67.06
34235;BME280;20500;49.856;20.290;2024-01-30T15:32:35;100498.48;;;5.49;66.87
34235;BME280;20500;49.856;20.290;2024-01-30T15:35:42;100500.70;;;5.34;66.78
34235;BME280;20500;49.856;20.290;2024-01-30T15:38:48;100502.71;;;5.22;66.67
34235;BME280;20500;49.856;20.290;2024-01-30T15:41:52;100504.11;;;5.12;66.66
34235;BME280;20500;49.856;20.290;2024-01-30T15:44:59;100507.55;;;5.02;66.50
34235;BME280;20500;49.856;20.290;2024-01-30T15:48:04;100507.25;;;4.91;66.64
34235;BME280;20500;49.856;20.290;2024-01-30T15:51:10;100507.08;;;4.76;66.61
34235;BME280;20500;49.856;20.290;2024-01-30T15:54:16;100502.86;;;4.62;66.60
34235;BME280;20500;49.856;20.290;2024-01-30T15:57:23;100503.96;;;4.49;66.76
34235;BME280;20500;49.856;20.290;2024-01-30T16:00:32;100496.43;;;4.38;66.59
34235;BME280;20500;49.856;20.290;2024-01-30T16:03:39;100493.39;;;4.28;66.48
34235;BME280;20500;49.856;20.290;2024-01-30T16:06:45;100490.13;;;4.16;66.53
34235;BME280;20500;49.856;20.290;2024-01-30T16:09:51;100486.45;;;4.02;66.48